This is the latest recevied weather packets stored in our database for station/object W4SMH. If no packets are shown the sender has not sent any weather packets the latest 10 day(s).
| Time | Temp. | Humidity | Pressure | Rain* | Wind** | Luminosity | Snow |
|---|---|---|---|---|---|---|---|
| 1778040815 | 7.78° C | 56% | 1009.5 hPa | 0 mm | - | 0 W/m² | - |
| 1778040330 | 7.78° C | 56% | 1009.3 hPa | 0 mm | - | 0 W/m² | - |
| 1778040135 | 7.78° C | 56% | 1009.3 hPa | 0 mm | - | 0 W/m² | - |
| 1778039587 | 7.78° C | 80% | 1000.8 hPa | 0 mm | - | 18 W/m² | - |
| 1778039561 | 8.33° C | 79% | 1000.9 hPa | 0 mm | - | 0 W/m² | - |
| 1778039515 | 8.89° C | 78% | 1000.8 hPa | 0 mm | - | 0 W/m² | - |
| 1778039346 | 8.33° C | 56% | 1009.1 hPa | 0 mm | - | 0 W/m² | - |
| 1778037952 | 8.33° C | 56% | 1008.9 hPa | 0 mm | - | 0 W/m² | - |
| 1778037791 | 8.33° C | 55% | 1008.9 hPa | 0 mm | - | 0 W/m² | - |
| 1778037470 | 8.33° C | 53% | 1009 hPa | 0 mm | - | 0 W/m² | - |
| 1778036737 | 8.33° C | 58% | 1008.8 hPa | 0 mm | - | 0 W/m² | - |
| 1778036676 | 8.33° C | 57% | 1008.9 hPa | 0 mm | - | 0 W/m² | - |
| 1778036531 | 8.33° C | 58% | 1008.8 hPa | 0 mm | - | 0 W/m² | - |
| 1778035735 | 8.89° C | 55% | 1008.6 hPa | 0 mm | - | 0 W/m² | - |
| 1778035525 | 8.89° C | 55% | 1008.6 hPa | 0 mm | - | 0 W/m² | - |
| 1778035088 | 8.89° C | 53% | 1008.6 hPa | 0 mm | - | 0 W/m² | - |
| 1778033919 | 9.44° C | 54% | 1008.4 hPa | 0 mm | - | 0 W/m² | - |
| 1778033184 | 9.44° C | 54% | 1008.1 hPa | 0 mm | - | 0 W/m² | - |
| 1778033093 | 9.44° C | 53% | 1008.1 hPa | 0 mm | - | 0 W/m² | - |
| 1778031716 | 10° C | 52% | 1007.8 hPa | 0 mm | - | 0 W/m² | - |
| 1778031147 | 8.89° C | 78% | 1001.2 hPa | 0 mm | - | 0 W/m² | - |
| 1778031120 | 10° C | 52% | 1007.7 hPa | 0 mm | - | 0 W/m² | - |
| 1778030667 | 10.56° C | 51% | 1007.4 hPa | 0 mm | - | 0 W/m² | - |
| 1778030107 | 10.56° C | 52% | 1007.2 hPa | 0 mm | - | 0 W/m² | - |
| 1778029990 | 10.56° C | 51% | 1007.2 hPa | 0 mm | - | 0 W/m² | - |
* Rain latest hour (hover to see other rain measurements)
** Current wind speed in m/s (hover to see current wind gust speed)